createdAt,value
2022-09-25T00:02:00.905Z,30.03
2022-09-25T00:04:27.448Z,25.07
2022-09-25T00:06:53.853Z,26.90
2022-09-25T00:09:23.196Z,27.87
2022-09-25T00:11:49.756Z,25.37
2022-09-25T00:14:16.316Z,27.57
2022-09-25T00:16:42.894Z,24.70
2022-09-25T00:19:35.333Z,25.93
2022-09-25T00:22:01.765Z,24.37
2022-09-25T00:24:28.185Z,28.57
2022-09-25T00:26:54.621Z,21.40
2022-09-25T00:29:21.123Z,29.40
2022-09-25T00:31:47.534Z,25.60
2022-09-25T00:34:14.151Z,24.97
2022-09-25T00:36:40.808Z,27.30
2022-09-25T00:39:07.505Z,24.83
2022-09-25T00:41:34.360Z,25.10
2022-09-25T00:44:02.818Z,22.77
2022-09-25T00:46:42.863Z,25.23
2022-09-25T00:49:24.800Z,24.97
2022-09-25T00:52:03.191Z,25.33
2022-09-25T00:54:36.466Z,26.33
2022-09-25T00:57:08.735Z,22.87
2022-09-25T00:59:41.084Z,27.83
2022-09-25T01:02:13.990Z,29.13
2022-09-25T01:04:42.649Z,26.20
2022-09-25T01:07:10.543Z,23.90
2022-09-25T01:09:37.051Z,25.43
2022-09-25T01:12:04.223Z,26.70
2022-09-25T01:14:34.076Z,25.43
2022-09-25T01:17:16.332Z,21.50
2022-09-25T01:20:07.463Z,20.40
2022-09-25T01:22:55.281Z,23.70
2022-09-25T01:25:45.581Z,25.83
2022-09-25T01:28:18.164Z,21.17
2022-09-25T01:30:50.316Z,21.37
2022-09-25T01:33:23.956Z,18.23
2022-09-25T01:36:05.498Z,17.17
2022-09-25T01:38:38.513Z,22.37
2022-09-25T01:41:16.566Z,20.50
2022-09-25T01:44:02.524Z,17.00
2022-09-25T01:46:35.069Z,19.33
2022-09-25T01:49:22.312Z,12.70
2022-09-25T01:51:55.966Z,17.63
2022-09-25T01:54:30.372Z,23.47
2022-09-25T01:57:18.476Z,16.30
2022-09-25T01:59:57.947Z,14.97
2022-09-25T02:02:35.127Z,18.17
2022-09-25T02:05:12.337Z,16.73
2022-09-25T02:07:45.510Z,15.80
2022-09-25T02:10:17.625Z,16.43
2022-09-25T02:12:47.792Z,17.20
2022-09-25T02:15:20.033Z,23.53
2022-09-25T02:18:26.280Z,19.80
2022-09-25T02:21:12.396Z,13.70
2022-09-25T02:23:47.967Z,18.57
2022-09-25T02:26:34.636Z,12.60
2022-09-25T02:29:02.665Z,16.90
2022-09-25T02:31:38.881Z,18.83
2022-09-25T02:34:08.187Z,16.83
2022-09-25T02:36:37.108Z,16.20
2022-09-25T02:39:05.793Z,16.33
2022-09-25T02:41:49.572Z,20.80
2022-09-25T02:44:53.717Z,16.70
2022-09-25T02:47:39.108Z,13.53
2022-09-25T02:50:30.311Z,13.97
2022-09-25T02:53:18.798Z,15.77
2022-09-25T02:56:03.777Z,15.93
2022-09-25T02:58:36.926Z,17.63
2022-09-25T03:01:06.748Z,19.17
2022-09-25T03:03:34.593Z,21.90
2022-09-25T03:06:03.612Z,16.83
2022-09-25T03:08:39.482Z,16.90
2022-09-25T03:11:07.886Z,18.20
2022-09-25T03:13:35.147Z,19.67
2022-09-25T03:16:23.368Z,20.13
2022-09-25T03:18:49.817Z,14.23
2022-09-25T03:21:16.261Z,18.80
2022-09-25T03:23:42.721Z,15.47
2022-09-25T03:26:09.151Z,17.43
2022-09-25T03:28:35.791Z,18.17
2022-09-25T03:31:04.060Z,24.20
2022-09-25T03:33:34.782Z,20.47
2022-09-25T03:36:10.917Z,20.63
2022-09-25T03:38:38.939Z,16.93
2022-09-25T03:41:09.406Z,22.27
2022-09-25T03:43:37.654Z,16.90
2022-09-25T03:46:11.428Z,17.07
2022-09-25T03:48:38.962Z,13.57
2022-09-25T03:51:06.280Z,16.13
2022-09-25T03:53:33.711Z,19.43
2022-09-25T03:56:06.013Z,12.47
2022-09-25T03:58:32.670Z,13.90
2022-09-25T04:00:59.197Z,16.63
2022-09-25T04:03:29.584Z,20.43
2022-09-25T04:05:57.994Z,16.77
2022-09-25T04:08:27.057Z,18.97
2022-09-25T04:10:59.509Z,18.50
2022-09-25T04:13:29.843Z,21.93
2022-09-25T04:15:57.719Z,14.30
2022-09-25T04:18:25.396Z,17.20
2022-09-25T04:20:51.950Z,11.97
2022-09-25T04:23:18.496Z,21.33
2022-09-25T04:25:45.756Z,18.17
2022-09-25T04:28:12.314Z,13.50
2022-09-25T04:30:38.752Z,18.80
2022-09-25T04:33:23.822Z,23.43
2022-09-25T04:35:50.316Z,20.43
2022-09-25T04:38:17.084Z,15.40
2022-09-25T04:40:45.824Z,17.47
2022-09-25T04:43:12.390Z,16.97
2022-09-25T04:45:39.061Z,20.77
2022-09-25T04:48:05.677Z,27.07
2022-09-25T04:50:33.326Z,23.47
2022-09-25T04:53:00.893Z,17.83
2022-09-25T04:55:27.718Z,18.50
2022-09-25T04:57:59.539Z,15.37
2022-09-25T05:00:29.715Z,21.10
2022-09-25T05:02:56.687Z,17.00
2022-09-25T05:05:30.402Z,19.57
2022-09-25T05:08:01.528Z,22.23
2022-09-25T05:10:31.268Z,22.63
2022-09-25T05:12:59.560Z,20.53
2022-09-25T05:15:28.351Z,14.10
2022-09-25T05:18:00.985Z,16.87
2022-09-25T05:20:27.546Z,19.10
2022-09-25T05:22:56.410Z,15.00
2022-09-25T05:25:23.419Z,16.73
2022-09-25T05:27:50.689Z,18.33
2022-09-25T05:30:17.580Z,16.43
2022-09-25T05:32:49.368Z,17.57
2022-09-25T05:35:20.606Z,20.67
2022-09-25T05:37:47.607Z,13.03
2022-09-25T05:40:15.717Z,22.70
2022-09-25T05:42:46.791Z,18.50
2022-09-25T05:45:18.123Z,15.97
2022-09-25T05:47:44.997Z,18.10
2022-09-25T05:50:14.022Z,18.77
2022-09-25T05:52:40.768Z,16.20
2022-09-25T05:55:08.420Z,16.40
2022-09-25T05:57:35.927Z,16.00
2022-09-25T06:00:06.038Z,17.23
2022-09-25T06:02:32.504Z,19.23
2022-09-25T06:04:59.107Z,17.63
2022-09-25T06:07:25.519Z,22.43
2022-09-25T06:09:51.950Z,13.80
2022-09-25T06:12:18.538Z,18.50
2022-09-25T06:14:44.984Z,22.57
2022-09-25T06:17:12.553Z,16.57
2022-09-25T06:19:39.107Z,23.13
2022-09-25T06:22:05.731Z,18.10
2022-09-25T06:24:32.124Z,22.63
2022-09-25T06:26:58.549Z,21.80
2022-09-25T06:29:25.041Z,15.23
2022-09-25T06:31:52.222Z,18.40
2022-09-25T06:34:19.195Z,16.93
2022-09-25T06:36:45.710Z,15.60
2022-09-25T06:39:12.115Z,17.27
2022-09-25T06:41:38.972Z,19.00
2022-09-25T06:44:06.809Z,15.23
2022-09-25T06:46:33.333Z,20.60
2022-09-25T06:48:59.790Z,17.70
2022-09-25T06:51:32.345Z,26.07
2022-09-25T06:53:58.901Z,18.37
2022-09-25T06:56:25.696Z,18.73
2022-09-25T06:58:52.390Z,16.17
2022-09-25T07:01:19.087Z,21.97
2022-09-25T07:03:45.727Z,21.00
2022-09-25T07:06:18.045Z,17.30
2022-09-25T07:08:45.021Z,19.00
2022-09-25T07:11:20.231Z,18.93
2022-09-25T07:13:47.864Z,20.17
2022-09-25T07:16:17.086Z,19.73
2022-09-25T07:18:45.012Z,14.93
2022-09-25T07:21:14.175Z,17.00
2022-09-25T07:23:42.119Z,17.87
2022-09-25T07:26:18.062Z,17.13
2022-09-25T07:28:44.626Z,22.83
2022-09-25T07:31:19.849Z,23.17
2022-09-25T07:33:47.302Z,21.63
2022-09-25T07:36:15.039Z,20.40
2022-09-25T07:38:41.713Z,17.47
2022-09-25T07:41:13.425Z,13.03
2022-09-25T07:43:40.346Z,24.20
2022-09-25T07:46:07.098Z,14.97
2022-09-25T07:48:33.610Z,24.80
2022-09-25T07:51:01.679Z,16.43
2022-09-25T07:53:28.705Z,21.73
2022-09-25T07:56:06.595Z,15.90
2022-09-25T07:58:35.579Z,16.40
2022-09-25T08:01:04.705Z,16.83
2022-09-25T08:03:31.422Z,18.43
2022-09-25T08:06:10.468Z,15.97
2022-09-25T08:08:37.283Z,20.03
2022-09-25T08:11:08.887Z,14.27
2022-09-25T08:13:38.126Z,33.10
2022-09-25T08:16:06.100Z,14.93
2022-09-25T08:18:33.023Z,16.73
2022-09-25T08:21:03.739Z,17.87
2022-09-25T08:23:30.875Z,14.70
2022-09-25T08:25:57.782Z,18.30
2022-09-25T08:28:24.216Z,15.23
2022-09-25T08:30:51.008Z,17.40
2022-09-25T08:33:17.552Z,15.73
2022-09-25T08:35:44.266Z,20.23
2022-09-25T08:38:13.470Z,15.67
2022-09-25T08:40:56.256Z,14.27
2022-09-25T08:43:25.338Z,15.73
2022-09-25T08:46:12.179Z,18.73
2022-09-25T08:49:05.919Z,14.30
2022-09-25T08:51:44.238Z,19.43
2022-09-25T08:54:20.797Z,18.03
2022-09-25T08:56:54.619Z,17.90
2022-09-25T08:59:31.778Z,16.10
2022-09-25T09:02:11.290Z,16.80
2022-09-25T09:04:44.576Z,14.87
2022-09-25T09:07:27.202Z,18.47
2022-09-25T09:10:16.476Z,18.67
2022-09-25T09:12:47.097Z,14.97
2022-09-25T09:15:37.508Z,14.10
2022-09-25T09:18:24.865Z,16.70
2022-09-25T09:20:54.152Z,21.43
2022-09-25T09:23:23.414Z,14.80
2022-09-25T09:26:05.065Z,11.80
2022-09-25T09:29:01.809Z,13.63
2022-09-25T09:31:50.058Z,13.30
2022-09-25T09:34:52.972Z,9.70
2022-09-25T09:37:31.551Z,15.13
2022-09-25T09:40:15.406Z,13.27
2022-09-25T09:43:22.212Z,12.20
2022-09-25T09:45:58.941Z,13.50
2022-09-25T09:48:44.514Z,12.53
2022-09-25T09:51:22.215Z,15.13
2022-09-25T09:53:54.423Z,23.30
2022-09-25T09:56:35.755Z,15.77
2022-09-25T09:59:24.303Z,16.77
2022-09-25T10:02:01.169Z,12.87
2022-09-25T10:04:34.115Z,18.23
2022-09-25T10:07:08.461Z,14.40
2022-09-25T10:09:37.183Z,10.90
2022-09-25T10:12:15.480Z,14.13
2022-09-25T10:14:47.254Z,12.30
2022-09-25T10:17:15.630Z,11.60
2022-09-25T10:19:53.828Z,11.10
2022-09-25T10:22:23.963Z,12.53
2022-09-25T10:24:58.525Z,16.57
2022-09-25T10:27:31.433Z,15.97
2022-09-25T10:30:21.855Z,14.13
2022-09-25T10:32:57.294Z,19.23
2022-09-25T10:35:28.994Z,13.50
2022-09-25T10:37:58.297Z,10.00
2022-09-25T10:40:35.720Z,15.00
2022-09-25T10:43:15.006Z,9.70
2022-09-25T10:45:41.621Z,23.33
2022-09-25T10:48:54.441Z,17.70
2022-09-25T10:51:21.667Z,12.90
2022-09-25T10:54:15.351Z,11.37
2022-09-25T10:56:42.430Z,10.87
2022-09-25T10:59:21.072Z,11.87
2022-09-25T11:01:51.064Z,15.97
2022-09-25T11:04:22.185Z,14.33
2022-09-25T11:06:58.129Z,11.10
2022-09-25T11:09:29.945Z,11.37
2022-09-25T11:12:22.115Z,20.10
2022-09-25T11:14:57.988Z,11.33
2022-09-25T11:17:39.744Z,12.03
2022-09-25T11:20:16.403Z,22.23
2022-09-25T11:23:06.332Z,12.30
2022-09-25T11:25:46.745Z,11.20
2022-09-25T11:28:27.304Z,11.50
2022-09-25T11:31:03.003Z,12.00
2022-09-25T11:33:49.026Z,10.80
2022-09-25T11:36:33.232Z,11.33
2022-09-25T11:39:25.969Z,10.80
2022-09-25T11:42:21.310Z,15.87
2022-09-25T11:45:14.795Z,13.93
2022-09-25T11:47:47.735Z,15.67
2022-09-25T11:50:17.002Z,9.40
2022-09-25T11:53:29.517Z,14.37
2022-09-25T11:56:32.835Z,11.60
2022-09-25T11:59:22.890Z,11.50
2022-09-25T12:02:00.657Z,8.80
2022-09-25T12:04:46.549Z,9.17
2022-09-25T12:07:19.135Z,9.93
2022-09-25T12:10:06.830Z,9.00
2022-09-25T12:12:47.565Z,12.63
2022-09-25T12:15:40.006Z,8.73
2022-09-25T12:18:18.616Z,17.33
2022-09-25T12:20:55.663Z,10.43
2022-09-25T12:23:34.173Z,15.33
2022-09-25T12:26:23.942Z,12.07
2022-09-25T12:29:11.809Z,10.50
2022-09-25T12:31:58.201Z,11.00
2022-09-25T12:35:07.608Z,8.90
2022-09-25T12:37:46.840Z,7.73
2022-09-25T12:40:26.287Z,10.63
2022-09-25T12:43:03.162Z,19.60
2022-09-25T12:45:45.918Z,9.53
2022-09-25T12:48:31.837Z,11.13
2022-09-25T12:51:01.546Z,11.03
2022-09-25T12:53:31.943Z,12.87
2022-09-25T12:56:41.719Z,12.30
2022-09-25T12:59:29.008Z,15.13
2022-09-25T13:02:17.835Z,15.10
2022-09-25T13:04:53.765Z,12.17
2022-09-25T13:07:55.216Z,9.50
2022-09-25T13:10:38.035Z,11.33
2022-09-25T13:13:13.064Z,9.37
2022-09-25T13:15:42.957Z,11.53
2022-09-25T13:18:17.390Z,17.03
2022-09-25T13:20:53.380Z,11.47
2022-09-25T13:23:29.717Z,12.63
2022-09-25T13:26:00.933Z,19.30
2022-09-25T13:28:30.197Z,10.97
2022-09-25T13:31:09.110Z,11.80
2022-09-25T13:33:49.970Z,12.00
2022-09-25T13:36:50.382Z,10.60
2022-09-25T13:39:35.328Z,19.13
2022-09-25T13:42:33.297Z,10.20
2022-09-25T13:45:26.087Z,9.27
2022-09-25T13:48:07.106Z,10.97
2022-09-25T13:50:36.319Z,11.17
2022-09-25T13:53:25.584Z,10.33
2022-09-25T13:55:55.031Z,9.10
2022-09-25T13:58:26.512Z,13.97
2022-09-25T14:00:55.896Z,9.23
2022-09-25T14:03:37.847Z,14.80
2022-09-25T14:06:05.288Z,12.90
2022-09-25T14:08:33.787Z,11.90
2022-09-25T14:11:05.524Z,24.53
2022-09-25T14:13:33.388Z,9.60
2022-09-25T14:16:03.532Z,9.33
2022-09-25T14:18:44.831Z,10.40
2022-09-25T14:21:15.339Z,8.27
2022-09-25T14:23:49.296Z,10.57
2022-09-25T14:26:27.633Z,13.83
2022-09-25T14:28:58.047Z,10.67
2022-09-25T14:31:32.929Z,9.70
2022-09-25T14:34:21.235Z,12.60
2022-09-25T14:37:15.649Z,18.70
2022-09-25T14:40:00.842Z,13.43
2022-09-25T14:42:38.141Z,11.73
2022-09-25T14:45:25.715Z,11.20
2022-09-25T14:47:56.576Z,9.50
2022-09-25T14:50:26.880Z,8.67
2022-09-25T14:52:58.180Z,12.30
2022-09-25T14:55:33.747Z,12.10
2022-09-25T14:58:01.761Z,10.63
2022-09-25T15:00:29.274Z,11.07
2022-09-25T15:02:58.325Z,12.63
2022-09-25T15:05:31.615Z,13.27
2022-09-25T15:08:02.130Z,11.43
2022-09-25T15:10:36.409Z,9.10
2022-09-25T15:13:07.379Z,11.27
2022-09-25T15:15:35.204Z,9.93
2022-09-25T15:18:02.675Z,9.00
2022-09-25T15:20:32.739Z,10.37
2022-09-25T15:23:01.005Z,9.87
2022-09-25T15:25:31.583Z,10.40
2022-09-25T15:27:59.290Z,12.50
2022-09-25T15:30:28.166Z,9.83
2022-09-25T15:33:00.493Z,10.37
2022-09-25T15:35:28.569Z,7.57
2022-09-25T15:38:10.603Z,10.10
2022-09-25T15:40:37.809Z,10.00
2022-09-25T15:43:12.550Z,8.13
2022-09-25T15:45:43.429Z,10.23
2022-09-25T15:48:18.939Z,10.93
2022-09-25T15:50:45.531Z,10.00
2022-09-25T15:53:32.871Z,10.40
2022-09-25T15:56:15.541Z,9.20
2022-09-25T15:58:46.484Z,9.50
2022-09-25T16:01:35.231Z,10.37
2022-09-25T16:04:24.091Z,10.30
2022-09-25T16:06:51.095Z,10.27
2022-09-25T16:09:30.192Z,9.37
2022-09-25T16:12:20.942Z,8.40
2022-09-25T16:14:48.594Z,11.53
2022-09-25T16:17:22.126Z,11.53
2022-09-25T16:20:18.700Z,12.60
2022-09-25T16:22:53.614Z,14.57
2022-09-25T16:25:26.448Z,35.97
2022-09-25T16:28:00.235Z,11.40
2022-09-25T16:30:27.135Z,13.40
2022-09-25T16:32:56.326Z,10.10
2022-09-25T16:35:44.972Z,9.83
2022-09-25T16:38:31.233Z,9.60
2022-09-25T16:41:19.332Z,9.97
2022-09-25T16:43:46.573Z,9.30
2022-09-25T16:46:16.300Z,10.43
2022-09-25T16:48:45.079Z,8.07
2022-09-25T16:51:23.163Z,11.87
2022-09-25T16:53:50.677Z,9.43
2022-09-25T16:56:22.335Z,8.50
2022-09-25T16:58:49.711Z,9.17
2022-09-25T17:01:16.977Z,9.33
2022-09-25T17:03:49.958Z,9.30
2022-09-25T17:06:21.746Z,8.63
2022-09-25T17:08:48.943Z,8.70
2022-09-25T17:11:18.117Z,7.30
2022-09-25T17:13:45.347Z,9.33
2022-09-25T17:16:11.813Z,9.60
2022-09-25T17:18:38.318Z,8.93
2022-09-25T17:21:11.594Z,9.90
2022-09-25T17:23:38.247Z,7.70
2022-09-25T17:26:07.579Z,9.17
2022-09-25T17:28:34.014Z,8.07
2022-09-25T17:31:01.257Z,11.60
2022-09-25T17:33:28.270Z,8.00
2022-09-25T17:36:01.122Z,17.47
2022-09-25T17:38:27.603Z,9.67
2022-09-25T17:40:56.693Z,8.17
2022-09-25T17:43:25.023Z,8.77
2022-09-25T17:45:56.559Z,9.00
2022-09-25T17:48:28.540Z,9.87
2022-09-25T17:50:59.798Z,7.27
2022-09-25T17:53:29.519Z,9.57
2022-09-25T17:55:57.123Z,9.00
2022-09-25T17:58:24.855Z,7.10
2022-09-25T18:00:53.085Z,9.33
2022-09-25T18:03:21.028Z,8.80
2022-09-25T18:05:47.944Z,7.90
2022-09-25T18:08:15.258Z,8.97
2022-09-25T18:10:42.025Z,8.60
2022-09-25T18:13:13.870Z,9.70
2022-09-25T18:15:53.845Z,9.07
2022-09-25T18:18:20.821Z,10.70
2022-09-25T18:21:09.105Z,14.23
2022-09-25T18:23:37.930Z,15.93
2022-09-25T18:26:07.201Z,11.10
2022-09-25T18:28:33.895Z,14.90
2022-09-25T18:31:00.492Z,11.63
2022-09-25T18:33:27.064Z,15.00
2022-09-25T18:35:54.065Z,11.07
2022-09-25T18:38:21.065Z,20.60
2022-09-25T18:40:47.746Z,15.30
2022-09-25T18:43:14.262Z,12.73
2022-09-25T18:45:42.312Z,20.53
2022-09-25T18:48:09.070Z,15.47
2022-09-25T18:50:35.715Z,16.60
2022-09-25T18:53:02.198Z,10.57
2022-09-25T18:55:29.660Z,11.23
2022-09-25T18:57:57.230Z,10.20
2022-09-25T19:00:23.675Z,11.90
2022-09-25T19:02:50.265Z,11.00
2022-09-25T19:05:17.407Z,23.30
2022-09-25T19:07:43.890Z,9.70
2022-09-25T19:10:10.879Z,13.77
2022-09-25T19:12:37.363Z,10.63
2022-09-25T19:15:04.887Z,13.30
2022-09-25T19:17:32.115Z,15.80
2022-09-25T19:19:59.016Z,12.43
2022-09-25T19:22:25.496Z,9.93
2022-09-25T19:24:52.760Z,12.13
2022-09-25T19:27:19.703Z,12.63
2022-09-25T19:29:46.803Z,12.17
2022-09-25T19:32:15.292Z,12.27
2022-09-25T19:34:41.874Z,12.93
2022-09-25T19:37:08.684Z,9.37
2022-09-25T19:39:55.551Z,10.43
2022-09-25T19:42:23.415Z,12.60
2022-09-25T19:44:49.960Z,15.20
2022-09-25T19:47:16.658Z,24.93
2022-09-25T19:49:43.089Z,25.60
2022-09-25T19:52:09.606Z,24.30
2022-09-25T19:54:36.259Z,22.63
2022-09-25T19:57:02.808Z,11.93
2022-09-25T19:59:29.332Z,13.43
2022-09-25T20:01:55.985Z,12.50
2022-09-25T20:04:22.501Z,12.70
2022-09-25T20:06:48.964Z,15.20
2022-09-25T20:09:15.770Z,12.20
2022-09-25T20:11:42.633Z,11.77
2022-09-25T20:14:09.130Z,15.40
2022-09-25T20:16:37.469Z,13.97
2022-09-25T20:19:06.360Z,20.10
2022-09-25T20:21:38.147Z,16.17
2022-09-25T20:24:06.873Z,17.70
2022-09-25T20:26:35.873Z,13.57
2022-09-25T20:29:12.190Z,13.43
2022-09-25T20:31:41.089Z,14.70
2022-09-25T20:34:10.800Z,12.63
2022-09-25T20:36:38.973Z,13.03
2022-09-25T20:39:05.773Z,14.00
2022-09-25T20:41:33.314Z,14.73
2022-09-25T20:43:59.789Z,14.20
2022-09-25T20:46:26.934Z,14.73
2022-09-25T20:48:57.480Z,15.23
2022-09-25T20:51:27.429Z,15.00
2022-09-25T20:53:59.526Z,14.73
2022-09-25T20:56:27.707Z,16.50
2022-09-25T20:58:55.671Z,15.10
2022-09-25T21:01:25.603Z,24.07
2022-09-25T21:03:53.267Z,12.10
2022-09-25T21:06:25.781Z,15.27
2022-09-25T21:08:54.116Z,12.10
2022-09-25T21:11:21.868Z,11.80
2022-09-25T21:13:55.513Z,14.93
2022-09-25T21:16:22.620Z,16.80
2022-09-25T21:19:00.940Z,14.37
2022-09-25T21:21:28.864Z,11.23
2022-09-25T21:23:56.959Z,13.73
2022-09-25T21:26:26.305Z,15.00
2022-09-25T21:28:54.813Z,11.10
2022-09-25T21:31:23.793Z,11.40
2022-09-25T21:33:52.847Z,10.83
2022-09-25T21:36:20.240Z,14.97
2022-09-25T21:38:46.994Z,13.10
2022-09-25T21:41:16.537Z,13.50
2022-09-25T21:43:44.088Z,11.17
2022-09-25T21:46:20.054Z,13.00
2022-09-25T21:48:51.628Z,11.93
2022-09-25T21:51:20.151Z,13.63
2022-09-25T21:53:47.091Z,15.77
2022-09-25T21:56:17.115Z,15.00
2022-09-25T21:58:44.283Z,11.27
2022-09-25T22:01:12.003Z,14.13
2022-09-25T22:03:41.289Z,9.13
2022-09-25T22:06:10.845Z,11.30
2022-09-25T22:08:41.002Z,11.00
2022-09-25T22:11:08.514Z,9.67
2022-09-25T22:13:37.817Z,10.33
2022-09-25T22:16:09.796Z,10.33
2022-09-25T22:18:54.118Z,9.23
2022-09-25T22:21:22.770Z,13.87
2022-09-25T22:23:49.326Z,12.67
2022-09-25T22:26:17.298Z,14.67
2022-09-25T22:28:44.242Z,11.00
2022-09-25T22:31:22.908Z,13.07
2022-09-25T22:33:54.475Z,12.90
2022-09-25T22:36:21.492Z,12.60
2022-09-25T22:38:47.963Z,10.50
2022-09-25T22:41:15.398Z,11.50
2022-09-25T22:43:42.566Z,12.70
2022-09-25T22:46:11.132Z,10.73
2022-09-25T22:48:38.544Z,11.90
2022-09-25T22:51:07.882Z,15.20
2022-09-25T22:53:35.538Z,11.20
2022-09-25T22:56:26.215Z,11.23
2022-09-25T22:58:58.346Z,14.40
2022-09-25T23:01:47.621Z,12.87
2022-09-25T23:04:19.895Z,11.93
2022-09-25T23:06:47.033Z,11.67
2022-09-25T23:09:16.539Z,11.43
2022-09-25T23:11:43.430Z,11.33
2022-09-25T23:14:17.378Z,12.43
2022-09-25T23:16:45.128Z,12.20
2022-09-25T23:19:12.425Z,11.63
2022-09-25T23:21:39.168Z,13.60
2022-09-25T23:24:08.576Z,11.47
2022-09-25T23:26:35.025Z,16.87
2022-09-25T23:29:02.188Z,14.50
2022-09-25T23:31:30.337Z,12.50
2022-09-25T23:34:00.869Z,14.13
2022-09-25T23:36:28.915Z,10.10
2022-09-25T23:38:58.194Z,12.07
2022-09-25T23:41:27.456Z,12.80
2022-09-25T23:43:55.263Z,13.83
2022-09-25T23:46:23.940Z,13.40
2022-09-25T23:48:51.323Z,15.50
2022-09-25T23:51:18.846Z,11.60
2022-09-25T23:53:46.315Z,11.93
2022-09-25T23:56:15.418Z,15.17
2022-09-25T23:58:42.635Z,14.63
